ADDS METAR Data INFO
IDs: Format: Raw Decoded Include TAF

Data at: 1413 UTC 12 Dec 2017

PACV 121353Z 11014G23KT 8SM -RA BKN039 OVC110 06/02 A2985 RMK AO2 RAB44 SLP110 P0000 T00560017 $
PACV 121253Z 10007KT 10SM BKN041 BKN060 OVC095 06/01 A2985 RMK AO2 SLP107 T00610006 $
PACV 121153Z 09006KT 10SM OVC055 06/01 A2985 RMK AO2 SLP109 70020 T00560006 10061 20028 56006 $
PACV 121053Z VRB05KT 10SM SCT050 06/01 A2986 RMK AO2 SLP111 T00560011 $
PACV 120953Z 07005KT 10SM BKN042 06/01 A2986 RMK AO2 SLP110 T00560006 $
PACV 120853Z 10007KT 10SM FEW043 SCT055 06/01 A2987 RMK AO2 SLP114 T00560006 400720028 50000 $
PACV 120753Z 10004KT 10SM BKN050 OVC070 06/01 A2988 RMK AO2 SLP118 T00560011 $
PACV 120653Z 00000KT 10SM FEW038 BKN050 OVC070 03/02 A2986 RMK AO2 SLP113 T00280017 $
PACV 120553Z 06005KT 10SM SCT038 SCT043 BKN070 04/02 A2987 RMK AO2 RAB04E19 SLP114 P0000 60004 T00390022 10056 20039 58007 $
PACV 120453Z 04005KT 10SM BKN035 BKN045 OVC065 05/02 A2988 RMK AO2 SLP119 T00500017 $
PACV 120353Z 10003KT 10SM SCT024 BKN044 BKN070 04/02 A2989 RMK AO2 SLP120 T00440022 $
PACV 120253Z 10005KT 10SM SCT024 BKN044 BKN070 05/02 A2989 RMK AO2 SLP121 60004 T00500022 56004 $
PACV 120153Z 11006KT 10SM BKN028 BKN040 OVC070 05/03 A2989 RMK AO2 RAE14 SLP121 P0002 T00500028 $
PACV 120053Z 13011G20KT 080V150 4SM RA BR FEW019 OVC029 05/03 A2989 RMK AO2 RAB38 SLP122 P0002 T00500033 $
PACV 112353Z 11007G15KT 10SM SCT027 BKN039 OVC046 05/03 A2990 RMK AO2 RAE35 SLP125 P0005 60014 T00500033 10061 20044 53007 $
PACV 112318Z 11005KT 4SM -RA BR BKN023 BKN032 OVC039 05/04 A2990 RMK AO2 P0005 T00500039 $
PACV 112310Z 12010G18KT 2 1/2SM +RA BR FEW014 BKN022 OVC035 05/03 A2990 RMK AO2 VIS 1 3/4V5 P0005 T00500033 $
PACV 112259Z 11007G16KT 1 3/4SM RA BR FEW014 BKN024 OVC028 05/04 A2989 RMK AO2 P0002 T00500039 $
PACV 112253Z 10006KT 3SM RA BR FEW016 BKN024 OVC032 04/04 A2989 RMK AO2 RAB16 SLP122 P0007 T00440039 $
PACV 112232Z 10010G15KT 3SM -RA BR SCT021 OVC026 05/04 A2989 RMK AO2 RAB16 P0005 T00500039 $
PACV 112223Z VRB06G14KT 1 3/4SM +RA BR SCT021 BKN026 OVC038 04/03 A2989 RMK AO2 RAB16 P0004 T00440033 $
PACV 112215Z 11009KT 9SM SCT021 BKN028 OVC055 05/03 A2989 RMK AO2 T00500033 $
PACV 112153Z 11008G16KT 10SM FEW025 BKN037 OVC049 06/03 A2988 RMK AO2 RAE09 SLP118 P0000 T00610033 $
PACV 112148Z 11009KT 10SM SCT025 BKN034 OVC055 06/03 A2988 RMK AO2 RAE09 P0000 $
PACV 112053Z 10009G17KT 9SM -RA BKN025 BKN038 OVC048 05/03 A2986 RMK AO2 RAE1958B49 SLP110 P0000 60002 T00500033 50020 $
PACV 112050Z 11009G17KT 9SM -RA BKN023 BKN038 OVC048 05/03 A2986 RMK AO2 RAE1958B49 P0000 $
PACV 111953Z 12009KT 9SM -RA OVC050 04/03 A2983 RMK AO2 SLP102 P0001 T00440033 $
PACV 111853Z 12010KT 8SM -RA FEW027 OVC033 04/03 A2980 RMK AO2 RAB40 SLP090 P0001 T00440033 $
PACV 111815Z 12005KT 10SM SCT019 BKN035 BKN049 05/03 A2976 RMK AO2 T00500028 $
PACV 111753Z 15006KT 10SM BKN019 BKN027 OVC032 05/03 A2976 RMK AO2 SLP076 60002 T00500028 10061 20044 51044 $
PACV 111653Z 11008KT 10SM FEW029 BKN047 OVC060 05/04 A2969 RMK AO2 RAE26 PRESRR SLP054 P0000 T00500039 $
PACV 111630Z 13007G17KT 10SM FEW025 SCT032 OVC043 05/03 A2966 RMK AO2 RAE26 P0000 T00500033 $
PACV 111553Z 15009G29KT 8SM -RA BKN021 BKN028 OVC038 05/03 A2963 RMK AO2 PK WND 14029/1545 RAB13E29B48PLB25E30 SLP032 P0000 T00500033 $
PACV 111536Z 13009G14KT 10SM SCT021 BKN027 OVC033 06/04 A2961 RMK AO2 RAB13E29PLB25E30 P0000 T00560039 $
PACV 111529Z VRB05KT 10SM -PL BKN021 BKN027 OVC033 06/04 A2960 RMK AO2 RAB13E29PLB25 P0000 T00560044 $
PACV 111453Z 14012G20KT 10SM OVC021 06/04 A2956 RMK AO2 RAB10E52 PRESRR SLP009 P0001 60002 T00560039 52062 $
PACV 111411Z 14007G16KT 10SM -RA BKN028 BKN038 OVC070 06/04 A2951 RMK AO2 RAB10 P0000 T00560039 $
PACV 111353Z 14012G22KT 10SM SCT024 BKN039 OVC070 06/04 A2950 RMK AO2 RAE41 SLP988 P0000 T00560039 $
PACV 111331Z 14011G22KT 9SM -RA BKN023 BKN028 OVC041 06/04 A2947 RMK AO2 PRESRR P0000 T00610044 $
PACV 111321Z 14014G20KT 10SM -RA SCT023 BKN031 OVC038 06/04 A2946 RMK AO2 P0000 T00610044 $
PACV 111253Z 13015G26KT 10SM -RA BKN020 BKN026 OVC033 06/04 A2943 RMK AO2 PK WND 12029/1223 SLP967 P0001 T00610044 $
PACV 111153Z 14018G28KT 10SM -RA SCT017 BKN024 OVC045 06/04 A2937 RMK AO2 PK WND 14042/1101 RAE18B27 SLP947 P0001 60019 70040 T00560044 10083 20056 53049 $
PACV 111121Z 14017G31KT 10SM SCT010 BKN018 OVC026 06/05 A2933 RMK AO2 PK WND 14042/1101 RAE18 PRESRR P0001 T00610050 $
PACV 111053Z 13025G41KT 4SM -RA BR OVC010 07/07 A2928 RMK AO2 PK WND 12043/1008 PRESRR SLP916 P0001 T00720067 $
PACV 111034Z 12023G42KT 5SM -RA BR BKN012 OVC019 07/07 A2925 RMK AO2 PK WND 12043/1008 P0000 T00720067 $
PACV 110953Z 11019G39KT 7SM -RA FEW009 OVC015 07/06 A2924 RMK AO2 PK WND 12040/0936 SLP900 P0001 T00720061 $
PACV 110928Z 12020G36KT 4SM -RA BR BKN014 OVC025 07/07 A2923 RMK AO2 PK WND 11038/0917 P0000 T00720067 $
PACV 110853Z 14024G35KT 5SM RA BR FEW020 OVC029 08/06 A2923 RMK AO2 PK WND 11037/0810 SLP897 P0006 60016 T00780061 400890050 55018 $
PACV 110833Z 12019G31KT 8SM -RA OVC027 08/07 A2921 RMK AO2 PK WND 11037/0810 P0002 T00830067 $
PACV 110753Z 11027G43KT 4SM -RA BR FEW015 BKN030 OVC036 08/07 A2921 RMK AO2 PK WND 10045/0704 SLP890 P0006 T00830067 $
PACV 110709Z 10022G45KT 3SM -RA BR FEW016 BKN030 OVC039 08/06 A2923 RMK AO2 PK WND 10045/0704 P0002 T00830061 $
PACV 110653Z 10024G41KT 2 1/2SM -RA BR FEW017 OVC030 08/06 A2924 RMK AO2 PK WND 12042/0603 SLP900 P0004 T00830061 $
PACV 110553Z 10020G33KT 8SM -RA FEW018 FEW029 OVC041 08/04 A2928 RMK AO2 PK WND 11048/0540 SLP915 P0000 60011 T00830044 10089 20050 58044 $
PACV 110453Z 10015G26KT 070V130 10SM -RA OVC039 08/04 A2933 RMK AO2 PK WND 08042/0436 SLP933 P0004 T00780039 $
PACV 110426Z 07009G18KT 9SM -RA FEW028 OVC033 06/04 A2936 RMK AO2 PK WND 10035/0410 P0004 T00610044 $
PACV 110353Z 07011G35KT 3SM RA FEW015 BKN025 OVC033 07/04 A2940 RMK AO2 PK WND 12042/0335 SLP956 P0004 T00670039 $
PACV 110349Z 09020G35KT 050V120 4SM -RA BR FEW015 OVC028 06/04 A2941 RMK AO2 PK WND 12042/0335 P0003 $
PACV 110253Z 09010KT 10SM -RA OVC039 06/03 A2945 RMK AO2 SLP971 P0003 60003 T00560033 56086 $